createdAt,value
2018-02-06T00:01:48.605Z,12.70
2018-02-06T00:04:16.123Z,12.73
2018-02-06T00:06:43.672Z,13.83
2018-02-06T00:09:11.197Z,12.97
2018-02-06T00:11:38.775Z,12.87
2018-02-06T00:14:06.352Z,12.27
2018-02-06T00:16:33.878Z,12.33
2018-02-06T00:19:02.218Z,14.00
2018-02-06T00:21:30.661Z,12.47
2018-02-06T00:23:58.224Z,13.17
2018-02-06T00:26:25.769Z,12.03
2018-02-06T00:28:53.333Z,13.43
2018-02-06T00:31:20.870Z,13.00
2018-02-06T00:33:48.457Z,13.20
2018-02-06T00:36:15.985Z,13.20
2018-02-06T00:38:43.593Z,12.77
2018-02-06T00:41:11.152Z,13.13
2018-02-06T00:43:38.678Z,14.03
2018-02-06T00:46:06.326Z,12.20
2018-02-06T00:48:34.082Z,13.07
2018-02-06T00:51:02.405Z,12.07
2018-02-06T00:53:29.956Z,12.30
2018-02-06T00:55:57.884Z,13.00
2018-02-06T00:58:25.421Z,13.33
2018-02-06T01:00:52.939Z,13.10
2018-02-06T01:03:20.500Z,12.33
2018-02-06T01:05:48.021Z,12.97
2018-02-06T01:08:15.580Z,12.10
2018-02-06T01:10:43.916Z,12.93
2018-02-06T01:13:11.494Z,13.03
2018-02-06T01:15:39.019Z,12.60
2018-02-06T01:18:06.643Z,13.47
2018-02-06T01:20:34.950Z,13.90
2018-02-06T01:23:02.513Z,13.70
2018-02-06T01:25:30.041Z,13.23
2018-02-06T01:27:57.602Z,14.30
2018-02-06T01:30:25.165Z,14.57
2018-02-06T01:32:53.460Z,13.30
2018-02-06T01:35:21.005Z,13.70
2018-02-06T01:37:48.560Z,12.27
2018-02-06T01:40:16.108Z,14.43
2018-02-06T01:42:43.691Z,12.87
2018-02-06T01:45:11.238Z,13.57
2018-02-06T01:47:38.800Z,13.17
2018-02-06T01:50:06.408Z,13.40
2018-02-06T01:52:33.932Z,12.90
2018-02-06T01:55:01.491Z,12.57
2018-02-06T01:57:29.024Z,13.23
2018-02-06T01:59:57.364Z,13.37
2018-02-06T02:02:24.885Z,12.57
2018-02-06T02:04:52.421Z,13.40
2018-02-06T02:07:19.999Z,14.07
2018-02-06T02:09:47.546Z,13.97
2018-02-06T02:12:15.897Z,12.30
2018-02-06T02:14:43.428Z,12.73
2018-02-06T02:17:10.998Z,13.97
2018-02-06T02:19:38.580Z,13.80
2018-02-06T02:22:06.147Z,12.97
2018-02-06T02:24:33.717Z,13.80
2018-02-06T02:27:01.267Z,13.30
2018-02-06T02:29:29.393Z,13.23
2018-02-06T02:31:56.925Z,13.63
2018-02-06T02:34:24.493Z,13.40
2018-02-06T02:36:52.074Z,13.73
2018-02-06T02:39:19.607Z,13.13
2018-02-06T04:39:55.768Z,14.83
2018-02-06T04:42:23.324Z,14.33
2018-02-06T04:44:50.864Z,15.53
2018-02-06T04:47:18.463Z,14.70
2018-02-06T04:49:45.979Z,14.77
2018-02-06T04:52:13.551Z,14.63
2018-02-06T04:54:41.869Z,14.53
2018-02-06T04:57:09.406Z,14.70
2018-02-06T04:59:36.983Z,15.60
2018-02-06T05:02:04.541Z,15.87
2018-02-06T05:04:32.060Z,15.30
2018-02-06T05:07:00.349Z,15.13
2018-02-06T05:09:27.904Z,14.77
2018-02-06T05:11:56.201Z,14.10
2018-02-06T05:14:23.762Z,16.47
2018-02-06T05:16:51.320Z,16.57
2018-02-06T05:19:18.894Z,15.97
2018-02-06T05:21:46.440Z,14.90
2018-02-06T05:24:13.984Z,14.87
2018-02-06T05:26:41.531Z,15.73
2018-02-06T05:29:09.091Z,15.50
2018-02-06T05:31:37.432Z,16.63
2018-02-06T05:34:04.987Z,14.73
2018-02-06T05:36:32.529Z,16.30
2018-02-06T05:39:00.088Z,15.37
2018-02-06T05:41:27.903Z,15.50
2018-02-06T05:43:56.246Z,16.33
2018-02-06T05:46:23.807Z,16.70
2018-02-06T05:51:33.251Z,15.67
2018-02-06T05:54:00.814Z,17.67
2018-02-06T05:56:28.334Z,18.17
2018-02-06T05:58:56.681Z,16.53
2018-02-06T06:01:24.212Z,17.80
2018-02-06T06:03:51.767Z,17.00
2018-02-06T06:06:19.593Z,17.03
2018-02-06T06:08:47.168Z,16.27
2018-02-06T06:11:14.737Z,15.73
2018-02-06T06:13:42.313Z,16.77
2018-02-06T06:16:09.839Z,16.50
2018-02-06T06:18:38.160Z,17.23
2018-02-06T06:21:05.711Z,17.07
2018-02-06T06:23:33.234Z,16.40
2018-02-06T06:26:01.631Z,17.13
2018-02-06T06:28:29.280Z,17.57
2018-02-06T06:30:57.615Z,17.53
2018-02-06T06:33:25.193Z,17.90
2018-02-06T06:35:52.751Z,18.00
2018-02-06T06:38:20.318Z,17.80
2018-02-06T06:40:48.869Z,17.67
2018-02-06T06:43:16.455Z,18.50
2018-02-06T06:45:44.771Z,18.23
2018-02-06T06:48:12.413Z,18.47
2018-02-06T06:50:39.948Z,17.57
2018-02-06T06:53:07.517Z,17.83
2018-02-06T06:55:35.094Z,19.27
2018-02-06T06:58:02.662Z,19.20
2018-02-06T07:00:30.201Z,18.33
2018-02-06T07:02:58.506Z,19.10
2018-02-06T07:05:26.057Z,17.73
2018-02-06T07:07:54.366Z,19.10
2018-02-06T07:10:21.895Z,19.03
2018-02-06T07:12:50.210Z,18.57
2018-02-06T07:15:17.945Z,18.93
2018-02-06T07:17:45.571Z,19.00
2018-02-06T07:20:13.199Z,18.53
2018-02-06T07:22:40.892Z,18.17
2018-02-06T07:25:08.421Z,17.30
2018-02-06T07:27:35.966Z,18.10
2018-02-06T07:30:03.510Z,19.07
2018-02-06T07:32:31.083Z,18.47
2018-02-06T07:34:58.767Z,18.30
2018-02-06T07:37:26.479Z,19.07
2018-02-06T07:39:54.087Z,19.53
2018-02-06T07:42:21.612Z,20.37
2018-02-06T07:44:49.710Z,19.00
2018-02-06T07:47:17.285Z,19.83
2018-02-06T07:49:45.695Z,20.50
2018-02-06T07:52:13.349Z,19.63
2018-02-06T07:54:40.984Z,19.70
2018-02-06T07:57:08.751Z,20.67
2018-02-06T07:59:37.301Z,19.43
2018-02-06T08:02:04.879Z,20.33
2018-02-06T08:04:32.506Z,19.90
2018-02-06T08:07:00.130Z,20.13
2018-02-06T08:09:27.708Z,20.07
2018-02-06T08:11:55.241Z,20.67
2018-02-06T08:14:22.810Z,21.37
2018-02-06T08:16:50.509Z,20.30
2018-02-06T08:19:18.107Z,21.17
2018-02-06T08:21:45.688Z,21.23
2018-02-06T08:24:13.283Z,21.37
2018-02-06T08:26:41.627Z,20.23
2018-02-06T08:29:09.179Z,20.33
2018-02-06T08:31:36.794Z,20.33
2018-02-06T08:34:04.341Z,20.33
2018-02-06T08:36:32.784Z,20.10
2018-02-06T08:39:00.349Z,19.67
2018-02-06T08:41:27.898Z,20.50
2018-02-06T08:43:55.476Z,19.53
2018-02-06T08:46:23.025Z,22.80
2018-02-06T08:48:50.653Z,19.67
2018-02-06T08:51:18.210Z,20.37
2018-02-06T08:53:45.776Z,20.00
2018-02-06T08:56:13.422Z,20.57
2018-02-06T08:58:40.976Z,20.37
2018-02-06T09:01:08.582Z,20.03
2018-02-06T09:03:36.130Z,20.17
2018-02-06T09:06:03.708Z,21.20
2018-02-06T09:08:31.385Z,21.07
2018-02-06T09:10:59.048Z,19.07
2018-02-06T09:13:26.628Z,19.60
2018-02-06T09:15:54.382Z,19.53
2018-02-06T09:18:22.222Z,19.53
2018-02-06T09:20:49.742Z,20.63
2018-02-06T09:23:17.436Z,20.03
2018-02-06T09:25:45.007Z,19.73
2018-02-06T09:28:12.537Z,20.87
2018-02-06T09:30:40.174Z,18.63
2018-02-06T09:33:07.841Z,20.80
2018-02-06T09:35:35.500Z,19.30
2018-02-06T09:38:03.086Z,20.73
2018-02-06T09:40:30.688Z,21.13
2018-02-06T09:42:58.283Z,19.27
2018-02-06T09:45:25.960Z,20.27
2018-02-06T09:47:53.541Z,20.43
2018-02-06T09:50:21.119Z,21.40
2018-02-06T09:52:48.668Z,20.27
2018-02-06T09:55:16.327Z,20.30
2018-02-06T09:57:43.902Z,19.23
2018-02-06T10:00:11.464Z,21.00
2018-02-06T10:02:39.008Z,19.60
2018-02-06T10:05:06.584Z,21.43
2018-02-06T10:07:34.198Z,20.47
2018-02-06T10:10:01.800Z,20.20
2018-02-06T10:12:29.456Z,20.03
2018-02-06T10:14:57.016Z,20.77
2018-02-06T10:17:24.576Z,20.90
2018-02-06T10:19:52.259Z,20.60
2018-02-06T10:22:19.822Z,20.67
2018-02-06T10:24:47.416Z,21.27
2018-02-06T10:27:14.994Z,21.67
2018-02-06T10:29:42.556Z,19.43
2018-02-06T10:32:10.398Z,20.37
2018-02-06T10:34:39.468Z,20.30
2018-02-06T10:37:07.168Z,22.50
2018-02-06T10:39:34.769Z,21.27
2018-02-06T10:42:06.534Z,21.50
2018-02-06T10:44:34.160Z,21.00
2018-02-06T10:47:01.720Z,20.57
2018-02-06T10:49:29.285Z,22.07
2018-02-06T10:51:56.868Z,21.07
2018-02-06T10:54:24.394Z,21.77
2018-02-06T10:56:51.982Z,21.23
2018-02-06T10:59:19.536Z,22.43
2018-02-06T11:01:47.143Z,21.77
2018-02-06T11:04:15.518Z,21.47
2018-02-06T11:06:43.851Z,21.30
2018-02-06T11:09:11.487Z,21.77
2018-02-06T11:11:39.098Z,21.40
2018-02-06T11:14:06.701Z,21.97
2018-02-06T11:16:34.320Z,21.63
2018-02-06T11:19:01.893Z,19.93
2018-02-06T11:21:29.452Z,20.93
2018-02-06T11:23:57.040Z,20.60
2018-02-06T11:26:24.579Z,21.53
2018-02-06T11:28:52.309Z,20.70
2018-02-06T11:31:19.888Z,22.37
2018-02-06T11:33:47.462Z,22.70
2018-02-06T11:36:15.774Z,21.27
2018-02-06T11:38:44.031Z,21.50
2018-02-06T11:41:11.983Z,20.93
2018-02-06T11:43:40.386Z,20.47
2018-02-06T11:46:07.971Z,20.50
2018-02-06T11:48:35.620Z,20.43
2018-02-06T11:51:03.338Z,21.47
2018-02-06T11:53:31.003Z,21.23
2018-02-06T11:55:58.891Z,20.97
2018-02-06T11:58:26.530Z,21.00
2018-02-06T12:00:54.145Z,20.77
2018-02-06T12:03:21.848Z,21.57
2018-02-06T12:05:49.578Z,21.03
2018-02-06T12:08:17.367Z,22.00
2018-02-06T12:10:45.066Z,21.60
2018-02-06T12:13:12.766Z,22.23
2018-02-06T12:15:40.397Z,21.30
2018-02-06T12:18:08.777Z,21.30
2018-02-06T12:20:36.464Z,22.90
2018-02-06T12:23:04.039Z,23.10
2018-02-06T12:25:31.674Z,20.13
2018-02-06T12:27:59.237Z,22.27
2018-02-06T12:30:26.860Z,21.10
2018-02-06T12:32:54.436Z,20.77
2018-02-06T12:35:22.037Z,21.70
2018-02-06T12:37:49.564Z,22.20
2018-02-06T12:40:17.154Z,20.30
2018-02-06T12:42:44.725Z,22.90
2018-02-06T12:45:12.284Z,22.97
2018-02-06T12:47:40.004Z,21.97
2018-02-06T12:50:07.597Z,22.10
2018-02-06T12:52:35.179Z,20.90
2018-02-06T12:55:02.792Z,21.50
2018-02-06T12:57:30.519Z,21.57
2018-02-06T12:59:58.116Z,21.80
2018-02-06T13:02:25.703Z,20.73
2018-02-06T13:04:53.302Z,21.53
2018-02-06T13:07:21.712Z,21.70
2018-02-06T13:09:49.339Z,21.70
2018-02-06T13:12:16.953Z,22.13
2018-02-06T13:14:44.498Z,20.70
2018-02-06T13:17:12.259Z,21.50
2018-02-06T13:19:39.872Z,20.87
2018-02-06T13:22:07.401Z,22.30
2018-02-06T13:24:34.981Z,22.33
2018-02-06T13:27:08.659Z,21.20
2018-02-06T13:29:36.224Z,21.47
2018-02-06T13:32:03.782Z,20.17
2018-02-06T13:34:31.497Z,20.47
2018-02-06T13:36:59.076Z,21.57
2018-02-06T13:39:27.432Z,21.07
2018-02-06T13:41:55.188Z,21.20
2018-02-06T13:44:22.832Z,20.53
2018-02-06T13:46:50.353Z,20.73
2018-02-06T13:49:17.908Z,21.30
2018-02-06T13:51:45.467Z,20.80
2018-02-06T13:54:13.012Z,20.33
2018-02-06T13:56:40.732Z,21.57
2018-02-06T13:59:08.335Z,20.57
2018-02-06T14:01:36.655Z,21.10
2018-02-06T14:04:04.211Z,20.47
2018-02-06T14:06:31.880Z,20.40
2018-02-06T14:08:59.454Z,21.93
2018-02-06T14:11:27.131Z,22.53
2018-02-06T14:13:55.211Z,21.67
2018-02-06T14:16:23.617Z,20.47
2018-02-06T14:18:51.947Z,20.93
2018-02-06T14:21:19.521Z,20.40
2018-02-06T14:23:47.233Z,21.27
2018-02-06T14:26:14.996Z,21.17
2018-02-06T14:28:42.621Z,20.80
2018-02-06T14:31:10.269Z,22.37
2018-02-06T14:33:38.640Z,20.20
2018-02-06T14:36:06.376Z,21.20
2018-02-06T14:38:34.830Z,19.40
2018-02-06T14:41:02.466Z,21.57
2018-02-06T14:43:30.023Z,21.23
2018-02-06T14:45:57.657Z,20.83
2018-02-06T14:48:25.413Z,21.97
2018-02-06T14:50:52.996Z,20.87
2018-02-06T14:53:20.574Z,21.57
2018-02-06T14:55:48.217Z,20.63
2018-02-06T14:58:15.798Z,20.30
2018-02-06T15:00:43.479Z,20.77
2018-02-06T15:03:11.063Z,21.13
2018-02-06T15:05:38.783Z,21.17
2018-02-06T15:08:06.443Z,20.47
2018-02-06T15:10:34.006Z,19.77
2018-02-06T15:13:01.586Z,20.23
2018-02-06T15:15:29.909Z,22.10
2018-02-06T15:17:57.965Z,19.53
2018-02-06T15:20:25.562Z,19.33
2018-02-06T15:22:53.296Z,19.53
2018-02-06T15:25:20.899Z,19.60
2018-02-06T15:27:48.575Z,21.30
2018-02-06T15:30:16.918Z,20.87
2018-02-06T15:32:44.503Z,20.83
2018-02-06T15:35:12.105Z,19.50
2018-02-06T15:37:39.654Z,21.10
2018-02-06T15:40:07.305Z,21.27
2018-02-06T15:42:34.989Z,19.90
2018-02-06T15:45:02.888Z,19.93
2018-02-06T15:47:30.492Z,19.93
2018-02-06T15:49:58.055Z,20.80
2018-02-06T15:52:25.596Z,20.53
2018-02-06T15:54:53.688Z,19.87
2018-02-06T15:57:21.198Z,20.73
2018-02-06T15:59:48.767Z,19.93
2018-02-06T16:02:16.315Z,20.60
2018-02-06T16:04:43.955Z,20.77
2018-02-06T16:07:11.591Z,21.00
2018-02-06T16:09:39.133Z,19.63
2018-02-06T16:12:06.734Z,21.10
2018-02-06T16:14:34.356Z,19.37
2018-02-06T16:17:02.036Z,22.63
2018-02-06T16:19:29.614Z,20.57
2018-02-06T16:21:57.186Z,21.03
2018-02-06T16:24:24.760Z,23.63
2018-02-06T16:26:52.396Z,23.13
2018-02-06T16:29:19.965Z,20.93
2018-02-06T16:31:47.585Z,20.67
2018-02-06T16:34:15.900Z,21.60
2018-02-06T16:36:43.432Z,21.57
2018-02-06T16:39:11.756Z,21.70
2018-02-06T16:41:39.436Z,20.30
2018-02-06T16:44:07.128Z,23.23
2018-02-06T16:46:34.746Z,21.10
2018-02-06T16:49:02.429Z,22.73
2018-02-06T16:51:30.025Z,22.90
2018-02-06T16:53:57.652Z,21.83
2018-02-06T16:56:25.297Z,23.00
2018-02-06T16:58:54.291Z,22.10
2018-02-06T17:01:21.906Z,22.67
2018-02-06T17:03:49.470Z,21.20
2018-02-06T17:06:17.071Z,22.40
2018-02-06T17:08:45.533Z,22.50
2018-02-06T17:11:13.087Z,21.30
2018-02-06T17:13:40.731Z,22.40
2018-02-06T17:16:08.599Z,21.67
2018-02-06T17:18:36.173Z,20.50
2018-02-06T17:21:03.772Z,22.43
2018-02-06T17:23:31.344Z,21.53
2018-02-06T17:25:58.877Z,20.33
2018-02-06T17:28:26.514Z,19.17
2018-02-06T17:30:54.039Z,22.57
2018-02-06T17:33:21.631Z,21.53
2018-02-06T17:35:49.243Z,20.93
2018-02-06T17:38:16.763Z,21.07
2018-02-06T17:40:44.685Z,21.87
2018-02-06T17:43:13.016Z,21.33
2018-02-06T17:45:40.559Z,22.17
2018-02-06T17:48:08.165Z,19.90
2018-02-06T17:50:35.703Z,20.77
2018-02-06T17:53:03.266Z,23.23
2018-02-06T17:55:30.884Z,20.97
2018-02-06T17:57:58.554Z,22.97
2018-02-06T18:00:26.126Z,21.23
2018-02-06T18:02:53.682Z,23.43
2018-02-06T18:05:21.350Z,21.57
2018-02-06T18:07:48.911Z,23.10
2018-02-06T18:10:16.477Z,21.97
2018-02-06T18:12:44.059Z,23.30
2018-02-06T18:15:11.667Z,22.33
2018-02-06T18:17:39.218Z,23.13
2018-02-06T18:20:06.764Z,23.10
2018-02-06T18:22:35.196Z,23.90
2018-02-06T18:25:02.764Z,23.73
2018-02-06T18:27:30.281Z,22.90
2018-02-06T18:29:58.176Z,22.73
2018-02-06T18:32:26.212Z,22.73
2018-02-06T18:34:53.782Z,23.27
2018-02-06T18:37:21.343Z,25.07
2018-02-06T18:39:48.884Z,23.40
2018-02-06T18:42:17.308Z,26.27
2018-02-06T18:44:44.930Z,25.97
2018-02-06T18:47:12.490Z,25.60
2018-02-06T18:49:40.815Z,24.70
2018-02-06T18:52:08.423Z,25.57
2018-02-06T18:54:35.945Z,27.60
2018-02-06T18:57:03.546Z,29.53
2018-02-06T18:59:31.872Z,30.80
2018-02-06T19:01:59.434Z,28.43
2018-02-06T19:04:26.979Z,27.87
2018-02-06T19:06:54.509Z,26.30
2018-02-06T19:09:22.080Z,25.17
2018-02-06T19:11:50.386Z,24.13
2018-02-06T19:14:18.242Z,22.83
2018-02-06T19:16:45.798Z,22.40
2018-02-06T19:19:13.379Z,19.87
2018-02-06T19:21:40.935Z,21.10
2018-02-06T19:24:08.456Z,20.33
2018-02-06T19:26:36.017Z,21.07
2018-02-06T19:29:03.551Z,21.20
2018-02-06T19:31:32.232Z,21.43
2018-02-06T19:33:59.865Z,22.20
2018-02-06T19:36:27.403Z,22.83
2018-02-06T19:38:55.210Z,23.73
2018-02-06T19:41:22.748Z,24.20
2018-02-06T19:43:50.304Z,22.77
2018-02-06T19:46:17.858Z,24.73
2018-02-06T19:48:45.434Z,26.50
2018-02-06T19:51:13.018Z,25.37
2018-02-06T19:53:40.607Z,24.53
2018-02-06T19:56:08.897Z,23.70
2018-02-06T19:58:36.551Z,24.13
2018-02-06T20:01:04.099Z,22.53
2018-02-06T20:03:31.702Z,23.47
2018-02-06T20:05:59.360Z,24.40
2018-02-06T20:08:26.886Z,26.07
2018-02-06T20:10:54.476Z,26.00
2018-02-06T20:13:22.053Z,24.80
2018-02-06T20:15:49.567Z,23.53
2018-02-06T20:18:17.933Z,23.13
2018-02-06T20:20:46.226Z,26.20
2018-02-06T20:23:13.841Z,28.87
2018-02-06T20:25:41.403Z,27.03
2018-02-06T20:28:09.011Z,29.30
2018-02-06T20:30:36.604Z,29.60
2018-02-06T20:33:04.129Z,33.53
2018-02-06T20:35:31.713Z,28.83
2018-02-06T20:37:59.274Z,27.50
2018-02-06T20:40:26.833Z,27.80
2018-02-06T20:42:54.377Z,29.07
2018-02-06T20:45:21.973Z,28.60
2018-02-06T20:47:49.498Z,28.60
2018-02-06T20:50:17.090Z,26.50
2018-02-06T20:52:44.701Z,25.70
2018-02-06T20:55:12.250Z,23.33
2018-02-06T20:57:40.681Z,25.97
2018-02-06T21:00:08.315Z,27.23
2018-02-06T21:02:35.892Z,30.87
2018-02-06T21:05:03.548Z,26.33
2018-02-06T21:07:31.387Z,24.47
2018-02-06T21:09:58.973Z,22.83
2018-02-06T21:12:26.530Z,22.67
2018-02-06T21:14:54.136Z,23.53
2018-02-06T21:17:21.717Z,21.50
2018-02-06T21:19:49.264Z,23.73
2018-02-06T21:22:16.840Z,21.13
2018-02-06T21:24:44.700Z,21.70
2018-02-06T21:27:12.284Z,22.83
2018-02-06T21:29:40.607Z,23.03
2018-02-06T21:32:08.186Z,21.90
2018-02-06T21:34:35.763Z,22.03
2018-02-06T21:37:03.392Z,22.13
2018-02-06T21:39:31.066Z,21.00
2018-02-06T21:41:58.612Z,23.17
2018-02-06T21:44:26.180Z,22.17
2018-02-06T21:46:53.810Z,20.80
2018-02-06T21:49:21.355Z,22.80
2018-02-06T21:51:48.991Z,21.10
2018-02-06T21:54:16.597Z,20.73
2018-02-06T21:56:44.557Z,20.03
2018-02-06T21:59:12.123Z,19.40
2018-02-06T22:01:39.693Z,17.20
2018-02-06T22:04:07.631Z,19.80
2018-02-06T22:06:35.274Z,19.20
2018-02-06T22:09:03.609Z,19.77
2018-02-06T22:11:31.141Z,19.30
2018-02-06T22:13:58.735Z,18.50
2018-02-06T22:16:26.310Z,19.00
2018-02-06T22:18:53.834Z,19.37
2018-02-06T22:21:21.404Z,19.27
2018-02-06T22:23:48.958Z,21.37
2018-02-06T22:26:16.565Z,20.83
2018-02-06T22:28:44.199Z,18.93
2018-02-06T22:31:11.818Z,20.40
2018-02-06T22:33:39.364Z,20.20
2018-02-06T22:36:06.918Z,18.50
2018-02-06T22:38:34.489Z,18.23
2018-02-06T22:41:02.087Z,19.80
2018-02-06T22:43:29.892Z,19.97
2018-02-06T22:45:58.285Z,19.13
2018-02-06T22:48:25.876Z,19.10
2018-02-06T22:50:53.446Z,19.83
2018-02-06T22:53:20.989Z,18.07
2018-02-06T22:55:48.552Z,19.40
2018-02-06T22:58:16.112Z,19.80
2018-02-06T23:00:43.686Z,19.23
2018-02-06T23:03:11.268Z,18.93
2018-02-06T23:05:38.847Z,19.00
2018-02-06T23:08:07.175Z,19.33
2018-02-06T23:10:34.724Z,23.40
2018-02-06T23:13:02.287Z,21.43
2018-02-06T23:15:29.856Z,25.03
2018-02-06T23:17:57.436Z,22.57
2018-02-06T23:20:25.000Z,20.67
2018-02-06T23:22:52.579Z,21.70
2018-02-06T23:25:20.131Z,23.03
2018-02-06T23:27:47.658Z,23.17
2018-02-06T23:30:15.215Z,22.43
2018-02-06T23:32:42.746Z,22.10
2018-02-06T23:35:10.274Z,23.53
2018-02-06T23:37:37.835Z,24.80
2018-02-06T23:40:05.405Z,23.67
2018-02-06T23:42:33.721Z,24.63
2018-02-06T23:45:01.283Z,25.30
2018-02-06T23:47:29.324Z,24.03
2018-02-06T23:49:57.611Z,24.23
2018-02-06T23:52:25.156Z,23.40
2018-02-06T23:54:53.518Z,22.90
2018-02-06T23:57:21.969Z,23.93
2018-02-06T23:59:49.502Z,23.90
